Time;durP1;ratioP1;P1;durP2;ratioP2;P2;SDS_P1;SDS_P2;PMS_P1;PMS_P2;Temp;Humidity;BMP_temperature;BMP_pressure;BME280_temperature;BME280_humidity;BME280_pressure;Samples;Min_cycle;Max_cycle;Signal;HPM_P1;HPM_P2
2022/09/21 00:00:44;;;;;;;6.23;4.30;;;7.50;99.90;;;;;;5023563;28;20179;-65
2022/09/21 00:03:09;;;;;;;7.07;4.90;;;7.40;99.90;;;;;;5021603;28;20174;-66
2022/09/21 00:05:35;;;;;;;4.93;4.13;;;7.40;99.90;;;;;;5030394;28;20452;-65
2022/09/21 00:08:02;;;;;;;7.13;5.00;;;7.40;99.90;;;;;;5022349;28;20190;-65
2022/09/21 00:10:28;;;;;;;8.00;5.00;;;7.40;99.90;;;;;;5027947;28;20185;-66
2022/09/21 00:12:56;;;;;;;8.63;5.10;;;7.40;99.90;;;;;;5027664;28;20444;-67
2022/09/21 00:15:22;;;;;;;6.50;5.50;;;7.40;99.90;;;;;;5026588;28;20198;-65
2022/09/21 00:17:52;;;;;;;4.90;4.40;;;7.50;99.90;;;;;;5027232;28;20456;-67
2022/09/21 00:20:18;;;;;;;5.13;3.83;;;7.40;99.90;;;;;;5024440;28;20512;-65
2022/09/21 00:22:45;;;;;;;6.80;3.90;;;7.30;99.90;;;;;;5025220;28;20429;-65
2022/09/21 00:25:11;;;;;;;10.10;5.43;;;7.20;99.90;;;;;;5029577;28;20453;-65
2022/09/21 00:27:36;;;;;;;5.30;4.80;;;7.20;99.90;;;;;;5028544;28;20844;-65
2022/09/21 00:30:03;;;;;;;8.27;5.20;;;7.10;99.90;;;;;;5018257;28;20198;-66
2022/09/21 00:32:33;;;;;;;6.30;4.50;;;7.10;99.90;;;;;;5018564;28;20778;-65
2022/09/21 00:34:59;;;;;;;7.97;5.13;;;7.10;99.90;;;;;;5024774;28;20463;-66
2022/09/21 00:37:26;;;;;;;5.90;3.80;;;7.10;99.90;;;;;;5020367;28;20465;-66
2022/09/21 00:39:52;;;;;;;7.57;4.63;;;7.10;99.90;;;;;;5028162;28;21017;-65
2022/09/21 00:42:23;;;;;;;5.90;3.77;;;7.10;99.90;;;;;;5023906;28;20440;-65
2022/09/21 00:44:49;;;;;;;4.70;3.67;;;7.00;99.90;;;;;;5025082;28;20461;-66
2022/09/21 00:47:18;;;;;;;9.87;4.40;;;8.80;99.90;;;;;;5023712;28;20455;-65
2022/09/21 00:49:48;;;;;;;8.10;4.60;;;7.10;99.90;;;;;;5023394;28;20175;-66
2022/09/21 00:52:18;;;;;;;4.83;3.47;;;7.00;99.90;;;;;;5024761;28;20478;-66
2022/09/21 00:54:49;;;;;;;7.87;3.80;;;7.00;99.90;;;;;;5025995;28;20472;-65
2022/09/21 00:57:16;;;;;;;4.43;3.90;;;7.00;99.90;;;;;;5025018;28;20469;-65
2022/09/21 00:59:43;;;;;;;5.23;4.43;;;7.00;99.90;;;;;;5022722;28;21000;-65
2022/09/21 01:02:09;;;;;;;5.80;4.40;;;6.90;99.90;;;;;;5023600;28;20436;-66
2022/09/21 01:04:36;;;;;;;5.47;4.77;;;6.90;99.90;;;;;;5028407;28;20433;-65
2022/09/21 01:07:07;;;;;;;5.50;3.73;;;6.90;99.90;;;;;;5029353;28;20576;-65
2022/09/21 01:09:33;;;;;;;6.00;4.03;;;6.80;99.90;;;;;;5028792;28;20440;-66
2022/09/21 01:12:43;;;;;;;4.33;3.67;;;6.80;99.90;;;;;;5028507;28;20436;-65
2022/09/21 01:15:14;;;;;;;5.13;3.90;;;6.80;99.90;;;;;;4945440;28;20459;-65
2022/09/21 01:18:11;;;;;;;6.70;3.80;;;6.80;99.90;;;;;;5034621;28;20468;-66
2022/09/21 01:20:54;;;;;;;6.03;4.37;;;6.80;99.90;;;;;;5028194;28;20980;-66
2022/09/21 01:23:25;;;;;;;6.27;4.60;;;6.90;99.90;;;;;;5024006;28;20533;-65
2022/09/21 01:26:15;;;;;;;5.60;4.10;;;6.90;99.90;;;;;;5017114;28;20481;-66
2022/09/21 01:29:00;;;;;;;4.10;3.70;;;6.80;99.90;;;;;;5023415;28;20426;-65
2022/09/21 01:31:32;;;;;;;9.00;4.47;;;6.80;99.90;;;;;;5028080;28;20945;-66
2022/09/21 01:34:05;;;;;;;4.77;4.13;;;6.70;99.90;;;;;;5026214;28;20432;-65
2022/09/21 01:36:33;;;;;;;11.40;3.93;;;6.70;99.90;;;;;;5016353;28;20497;-65
2022/09/21 01:39:07;;;;;;;4.77;4.37;;;6.70;99.90;;;;;;5022111;28;20976;-65
2022/09/21 01:41:35;;;;;;;4.10;3.27;;;6.60;99.90;;;;;;5024405;28;20871;-65
2022/09/21 01:44:09;;;;;;;4.50;4.00;;;6.30;99.90;;;;;;5023818;28;20470;-66
2022/09/21 01:46:36;;;;;;;5.17;4.77;;;6.60;99.90;;;;;;5020221;28;20491;-65
2022/09/21 01:49:09;;;;;;;7.13;4.30;;;6.60;99.90;;;;;;5015790;28;20455;-65
2022/09/21 01:51:37;;;;;;;7.13;4.50;;;6.50;99.90;;;;;;5014604;28;20447;-66
2022/09/21 01:54:09;;;;;;;7.07;4.23;;;6.50;99.90;;;;;;5025350;28;20445;-66
2022/09/21 01:56:43;;;;;;;6.97;4.23;;;6.50;99.90;;;;;;5022731;28;20479;-65
2022/09/21 01:59:22;;;;;;;6.43;4.90;;;6.50;99.90;;;;;;5025757;28;20467;-65
2022/09/21 02:01:54;;;;;;;7.13;4.27;;;6.50;99.90;;;;;;5030518;28;20974;-65
2022/09/21 02:04:20;;;;;;;6.50;4.97;;;8.40;99.90;;;;;;5017006;28;20445;-65
2022/09/21 02:06:47;;;;;;;4.47;4.07;;;6.50;99.90;;;;;;5019572;28;20461;-65
2022/09/21 02:09:13;;;;;;;7.83;5.37;;;6.40;99.90;;;;;;5020838;28;20190;-65
2022/09/21 02:11:41;;;;;;;5.50;4.30;;;6.40;99.90;;;;;;5025188;28;20502;-65
2022/09/21 02:14:10;;;;;;;7.03;5.07;;;6.40;99.90;;;;;;5034631;28;20261;-66
2022/09/21 02:17:07;;;;;;;6.70;5.00;;;6.40;99.90;;;;;;5024566;28;20461;-65
2022/09/21 02:19:47;;;;;;;11.47;4.93;;;6.40;99.90;;;;;;5011255;28;20437;-65
2022/09/21 02:22:28;;;;;;;9.17;5.10;;;6.40;99.90;;;;;;5026389;28;20521;-65
2022/09/21 02:25:03;;;;;;;6.13;4.43;;;6.50;99.90;;;;;;5020486;28;20488;-65
2022/09/21 02:27:54;;;;;;;5.53;4.50;;;6.40;99.90;;;;;;5029293;28;20471;-66
2022/09/21 02:30:23;;;;;;;5.63;4.50;;;6.40;99.90;;;;;;5010792;28;20942;-66
2022/09/21 02:33:12;;;;;;;6.80;4.63;;;6.40;99.90;;;;;;5026703;28;20440;-66
2022/09/21 02:35:57;;;;;;;6.40;4.23;;;6.30;99.90;;;;;;5020383;28;20492;-66
2022/09/21 02:38:48;;;;;;;5.77;3.83;;;6.30;99.90;;;;;;5029750;28;21107;-66
2022/09/21 02:41:23;;;;;;;4.87;4.37;;;6.20;99.90;;;;;;5027224;28;20494;-66
2022/09/21 02:44:00;;;;;;;6.10;4.50;;;6.10;99.90;;;;;;5030471;28;20979;-65
2022/09/21 02:46:28;;;;;;;6.97;4.80;;;6.10;99.90;;;;;;5027388;28;20468;-65
2022/09/21 02:48:59;;;;;;;5.43;4.27;;;6.10;99.90;;;;;;5021572;28;20797;-66
2022/09/21 02:51:32;;;;;;;5.60;4.33;;;6.00;99.90;;;;;;5030842;28;20445;-65
2022/09/21 02:54:03;;;;;;;4.87;4.10;;;6.00;99.90;;;;;;5027510;28;20524;-65
2022/09/21 02:56:30;;;;;;;7.00;4.20;;;6.00;99.90;;;;;;5029303;28;20484;-65
2022/09/21 02:58:59;;;;;;;6.13;4.10;;;6.00;99.90;;;;;;5023276;28;20575;-65
2022/09/21 03:01:27;;;;;;;5.80;4.20;;;6.00;99.90;;;;;;5029281;28;20445;-69
2022/09/21 03:03:52;;;;;;;6.60;5.60;;;6.00;99.90;;;;;;5030661;28;20440;-68
2022/09/21 03:06:18;;;;;;;8.73;4.50;;;6.00;99.90;;;;;;5031474;28;20833;-68
2022/09/21 03:08:43;;;;;;;4.93;4.40;;;6.00;99.90;;;;;;5026932;28;20170;-68
2022/09/21 03:11:10;;;;;;;6.70;4.37;;;6.00;99.90;;;;;;5028963;28;20170;-67
2022/09/21 03:13:36;;;;;;;7.00;4.60;;;5.90;99.90;;;;;;5028336;28;20202;-68
2022/09/21 03:16:05;;;;;;;7.83;5.07;;;5.90;99.90;;;;;;5023773;28;20579;-67
2022/09/21 03:18:31;;;;;;;5.03;4.47;;;5.90;99.90;;;;;;5028777;28;21334;-68
2022/09/21 03:20:57;;;;;;;6.40;3.77;;;5.90;99.90;;;;;;5024573;28;20523;-68
2022/09/21 03:23:22;;;;;;;7.70;5.27;;;5.90;99.90;;;;;;5021873;28;20197;-68
2022/09/21 03:25:48;;;;;;;8.97;4.50;;;5.90;99.90;;;;;;5029736;28;20709;-65
2022/09/21 03:28:15;;;;;;;9.50;6.43;;;5.90;99.90;;;;;;5028091;28;20587;-65
2022/09/21 03:30:40;;;;;;;7.30;6.03;;;6.00;99.90;;;;;;5022020;28;20429;-66
2022/09/21 03:33:07;;;;;;;6.73;5.90;;;6.10;99.90;;;;;;5021954;28;20434;-66
2022/09/21 03:35:33;;;;;;;10.53;7.20;;;6.20;99.90;;;;;;5021300;28;20195;-66
2022/09/21 03:37:59;;;;;;;8.90;7.10;;;6.20;99.90;;;;;;5030991;28;20436;-66
2022/09/21 03:40:26;;;;;;;10.33;8.67;;;6.20;99.90;;;;;;5027162;28;20996;-65
2022/09/21 03:42:52;;;;;;;9.47;6.27;;;6.30;99.90;;;;;;5030868;28;20441;-65
2022/09/21 03:45:18;;;;;;;11.77;7.77;;;6.30;99.90;;;;;;5019723;28;20457;-65
2022/09/21 03:47:44;;;;;;;8.37;7.43;;;6.20;99.90;;;;;;5026021;28;20463;-65
2022/09/21 03:50:10;;;;;;;9.07;8.20;;;6.20;99.90;;;;;;5030338;28;20182;-65
2022/09/21 03:52:38;;;;;;;16.10;9.60;;;6.20;99.90;;;;;;5023348;28;20199;-65
2022/09/21 03:55:05;;;;;;;13.10;9.57;;;6.20;99.90;;;;;;5015244;28;20465;-65
2022/09/21 03:57:31;;;;;;;9.50;7.60;;;6.20;99.90;;;;;;5021579;28;20523;-65
2022/09/21 03:59:57;;;;;;;10.20;8.23;;;6.10;99.90;;;;;;5021472;28;20479;-65
2022/09/21 04:02:22;;;;;;;12.53;9.03;;;6.10;99.90;;;;;;5021952;28;20432;-65
2022/09/21 04:04:48;;;;;;;12.87;9.10;;;6.20;99.90;;;;;;5025477;28;20205;-65
2022/09/21 04:07:14;;;;;;;11.27;9.93;;;6.10;99.90;;;;;;5030667;28;20198;-65
2022/09/21 04:09:40;;;;;;;8.70;7.80;;;6.10;99.90;;;;;;5028863;28;20652;-65
2022/09/21 04:12:06;;;;;;;7.63;6.83;;;6.10;99.90;;;;;;5027069;28;20429;-66
2022/09/21 04:14:32;;;;;;;7.50;6.80;;;6.00;99.90;;;;;;5020313;28;20516;-66
2022/09/21 04:16:58;;;;;;;10.33;8.00;;;5.90;99.90;;;;;;5029816;28;20186;-66
2022/09/21 04:19:23;;;;;;;12.63;8.27;;;5.90;99.90;;;;;;5025544;28;20446;-65
2022/09/21 04:21:50;;;;;;;11.43;8.60;;;5.90;99.90;;;;;;5029075;28;20186;-65
2022/09/21 04:24:18;;;;;;;9.83;8.23;;;5.90;99.90;;;;;;5028072;28;20236;-65
2022/09/21 04:26:45;;;;;;;9.60;8.60;;;5.80;99.90;;;;;;5024121;28;20518;-65
2022/09/21 04:29:14;;;;;;;10.83;8.50;;;5.80;99.90;;;;;;5024276;28;20437;-65
2022/09/21 04:31:40;;;;;;;11.00;8.70;;;5.80;99.90;;;;;;5018967;28;20434;-65
2022/09/21 04:34:07;;;;;;;14.53;9.43;;;5.90;99.90;;;;;;5019217;28;20973;-65
2022/09/21 04:36:33;;;;;;;10.00;8.40;;;5.80;99.90;;;;;;5026173;28;20804;-65
2022/09/21 04:39:03;;;;;;;8.60;6.80;;;5.80;99.90;;;;;;5022347;28;20494;-65
2022/09/21 04:41:29;;;;;;;10.40;7.80;;;5.90;99.90;;;;;;5022938;28;20237;-65
2022/09/21 04:43:54;;;;;;;11.80;7.60;;;5.70;99.90;;;;;;5019472;28;20432;-65
2022/09/21 04:46:20;;;;;;;13.97;8.30;;;5.60;99.90;;;;;;5023794;28;20577;-65
2022/09/21 04:48:46;;;;;;;12.47;8.63;;;5.50;99.90;;;;;;5027255;28;20179;-65
2022/09/21 04:51:13;;;;;;;10.10;9.10;;;5.50;99.90;;;;;;5028306;28;20186;-65
2022/09/21 04:53:41;;;;;;;10.10;8.47;;;5.50;99.90;;;;;;5023162;28;20500;-65
2022/09/21 04:56:07;;;;;;;9.70;8.37;;;5.50;99.90;;;;;;5023630;28;20507;-65
2022/09/21 04:58:33;;;;;;;12.20;9.20;;;5.60;99.90;;;;;;5019453;28;20483;-65
2022/09/21 05:00:59;;;;;;;11.83;8.80;;;5.60;99.90;;;;;;5030237;28;20489;-65
2022/09/21 05:03:25;;;;;;;14.83;9.30;;;5.60;99.90;;;;;;5022681;28;20460;-65
2022/09/21 05:05:53;;;;;;;11.37;8.10;;;5.60;99.90;;;;;;5020834;28;20699;-66
2022/09/21 05:11:12;;;;;;;13.53;9.50;;;5.50;99.90;;;;;;5017991;28;20483;-65
2022/09/21 05:13:38;;;;;;;14.10;9.40;;;5.50;99.90;;;;;;5021573;28;20448;-65
2022/09/21 05:16:04;;;;;;;12.07;8.83;;;5.50;99.90;;;;;;5026997;28;20456;-65
2022/09/21 05:18:29;;;;;;;11.03;9.83;;;5.50;99.90;;;;;;5024931;28;20445;-65
2022/09/21 05:20:59;;;;;;;14.47;9.67;;;5.50;99.90;;;;;;5030710;28;20186;-65
2022/09/21 05:23:26;;;;;;;11.80;9.80;;;5.60;99.90;;;;;;5031176;28;20186;-65
2022/09/21 05:25:51;;;;;;;12.07;10.27;;;5.60;99.90;;;;;;5029157;28;20988;-65
2022/09/21 05:28:18;;;;;;;13.10;10.83;;;5.60;99.90;;;;;;5030197;28;20432;-65
2022/09/21 05:31:16;;;;;;;16.70;10.80;;;5.70;99.90;;;;;;5025202;28;20182;-66
2022/09/21 05:33:47;;;;;;;11.53;10.30;;;5.70;99.90;;;;;;5028420;28;20441;-65
2022/09/21 05:36:31;;;;;;;15.20;10.73;;;5.70;99.90;;;;;;5033413;28;21672;-65
2022/09/21 05:38:57;;;;;;;10.07;8.70;;;5.70;99.90;;;;;;5030010;28;20452;-65
2022/09/21 05:41:23;;;;;;;12.33;11.23;;;5.80;99.90;;;;;;5027337;28;20444;-65
2022/09/21 05:43:48;;;;;;;13.70;10.03;;;5.90;99.90;;;;;;5026203;28;20664;-65
2022/09/21 05:46:19;;;;;;;10.50;9.27;;;5.90;99.90;;;;;;5032931;28;20213;-65
2022/09/21 05:49:06;;;;;;;10.97;9.77;;;6.10;99.90;;;;;;5032716;28;20182;-65
2022/09/21 05:51:42;;;;;;;15.70;10.93;;;6.20;99.90;;;;;;5033205;28;21017;-65
2022/09/21 05:54:13;;;;;;;13.80;10.73;;;6.40;99.90;;;;;;5024628;28;20794;-65
2022/09/21 05:56:57;;;;;;;17.97;11.60;;;6.60;99.90;;;;;;5033632;28;20472;-66
2022/09/21 05:59:31;;;;;;;23.53;12.17;;;6.90;99.90;;;;;;5026930;28;20526;-66
2022/09/21 06:02:14;;;;;;;13.00;10.60;;;7.00;99.90;;;;;;5019731;28;20431;-66
2022/09/21 06:04:40;;;;;;;11.77;10.23;;;7.20;99.90;;;;;;5031420;28;20449;-65
2022/09/21 06:07:06;;;;;;;13.30;10.67;;;7.30;99.90;;;;;;5027687;28;20511;-65
2022/09/21 06:09:31;;;;;;;11.80;10.50;;;7.50;99.90;;;;;;5018297;28;20668;-66
2022/09/21 06:11:57;;;;;;;11.67;10.47;;;7.60;99.90;;;;;;5028043;28;20185;-65
2022/09/21 06:14:24;;;;;;;12.90;11.60;;;7.80;99.90;;;;;;5027326;28;20175;-67
2022/09/21 06:16:50;;;;;;;14.97;11.80;;;7.90;99.90;;;;;;5026542;28;20449;-68
2022/09/21 06:19:16;;;;;;;14.33;10.60;;;8.20;99.90;;;;;;5032531;28;20440;-67
2022/09/21 06:21:41;;;;;;;15.63;11.60;;;8.40;99.90;;;;;;5023963;28;20449;-67
2022/09/21 06:24:07;;;;;;;12.10;10.77;;;8.60;99.90;;;;;;5029186;28;20197;-67
2022/09/21 06:26:33;;;;;;;15.23;10.73;;;8.80;99.90;;;;;;5023736;28;20260;-66
2022/09/21 06:28:59;;;;;;;10.27;9.30;;;8.90;99.90;;;;;;5024841;28;20193;-67
2022/09/21 06:31:26;;;;;;;11.87;10.67;;;9.10;99.90;;;;;;5032633;28;20257;-66
2022/09/21 06:33:51;;;;;;;11.67;10.07;;;9.30;99.90;;;;;;5030221;28;20445;-67
2022/09/21 06:36:17;;;;;;;12.03;10.83;;;9.40;99.90;;;;;;4997699;28;20550;-66
2022/09/21 06:38:43;;;;;;;11.10;10.10;;;9.60;99.90;;;;;;4996275;28;20748;-67
2022/09/21 06:41:08;;;;;;;11.60;10.33;;;9.80;99.90;;;;;;5029669;28;20269;-68
2022/09/21 06:43:37;;;;;;;13.27;9.60;;;9.80;99.90;;;;;;5025329;28;20190;-67
2022/09/21 06:46:03;;;;;;;11.57;10.57;;;10.00;99.90;;;;;;5021887;28;20629;-68
2022/09/21 06:48:30;;;;;;;12.63;9.93;;;10.00;99.90;;;;;;5033656;28;20421;-68
2022/09/21 06:50:59;;;;;;;9.83;9.03;;;10.10;99.90;;;;;;5034371;28;20926;-68
2022/09/21 06:53:26;;;;;;;12.40;10.40;;;9.90;99.90;;;;;;5034209;28;20845;-68
2022/09/21 06:55:53;;;;;;;12.67;9.60;;;9.80;99.90;;;;;;5030681;28;20471;-68
2022/09/21 06:58:18;;;;;;;13.60;10.77;;;9.90;99.90;;;;;;5033539;28;20425;-68
2022/09/21 07:00:45;;;;;;;12.03;10.70;;;10.00;99.90;;;;;;5034295;28;20178;-68
2022/09/21 07:03:14;;;;;;;11.80;9.63;;;10.30;99.90;;;;;;5034112;28;20618;-68
2022/09/21 07:05:43;;;;;;;12.13;10.93;;;10.50;99.90;;;;;;5030491;28;20441;-68
2022/09/21 07:08:08;;;;;;;10.80;9.70;;;10.70;99.90;;;;;;5029898;28;20460;-67
2022/09/21 07:10:34;;;;;;;16.10;9.20;;;10.50;99.90;;;;;;5017430;28;20425;-67
2022/09/21 07:13:04;;;;;;;11.27;10.20;;;10.70;99.90;;;;;;5025299;28;20210;-68
2022/09/21 07:15:31;;;;;;;10.33;9.10;;;10.80;99.90;;;;;;5019265;28;20203;-67
2022/09/21 07:17:57;;;;;;;9.80;8.80;;;10.80;99.90;;;;;;5014134;28;20938;-67
2022/09/21 07:20:23;;;;;;;10.83;8.27;;;10.90;99.90;;;;;;5012881;28;20430;-68
2022/09/21 07:22:48;;;;;;;12.03;10.77;;;11.10;99.90;;;;;;5013568;28;20430;-67
2022/09/21 07:25:14;;;;;;;9.67;8.37;;;11.20;99.90;;;;;;5010593;28;20274;-66
2022/09/21 07:27:40;;;;;;;11.30;9.83;;;11.30;99.90;;;;;;5012049;28;20198;-67
2022/09/21 07:30:06;;;;;;;10.47;8.83;;;11.40;99.90;;;;;;5015891;28;20245;-68
2022/09/21 07:32:32;;;;;;;9.67;8.03;;;11.60;99.90;;;;;;5032661;28;20503;-67
2022/09/21 07:34:58;;;;;;;10.53;7.20;;;11.70;99.90;;;;;;5031374;28;20477;-67
2022/09/21 07:37:24;;;;;;;9.43;8.10;;;11.80;99.90;;;;;;5031470;28;20265;-67
2022/09/21 07:39:51;;;;;;;7.23;6.53;;;12.00;99.90;;;;;;5021815;28;20205;-67
2022/09/21 07:42:18;;;;;;;8.93;7.50;;;12.10;99.90;;;;;;5023481;28;20919;-67
2022/09/21 07:44:45;;;;;;;9.13;6.97;;;12.20;99.90;;;;;;5013330;28;20474;-68
2022/09/21 07:47:12;;;;;;;7.53;6.80;;;12.20;99.90;;;;;;5009010;28;20559;-68
2022/09/21 07:49:38;;;;;;;8.63;6.70;;;12.20;99.90;;;;;;5012723;28;20423;-68
2022/09/21 07:52:04;;;;;;;9.20;7.23;;;12.40;99.90;;;;;;5018642;28;20424;-67
2022/09/21 07:54:30;;;;;;;8.97;6.63;;;12.60;99.90;;;;;;5032251;28;20175;-68
2022/09/21 07:59:40;;;;;;;9.17;7.40;;;12.50;99.90;;;;;;5030304;28;20948;-68
2022/09/21 08:02:06;;;;;;;10.30;7.60;;;12.50;99.90;;;;;;5031954;28;20425;-68
2022/09/21 08:04:31;;;;;;;11.70;5.73;;;12.80;99.90;;;;;;5023131;28;20189;-68
2022/09/21 08:06:56;;;;;;;6.33;5.73;;;12.80;99.90;;;;;;5024214;28;20292;-67
2022/09/21 08:09:22;;;;;;;6.20;4.73;;;12.80;99.90;;;;;;5022008;28;20225;-68
2022/09/21 08:11:48;;;;;;;4.43;4.03;;;13.30;99.90;;;;;;5032677;28;20200;-68
2022/09/21 08:14:18;;;;;;;4.90;4.30;;;13.60;99.90;;;;;;5031472;28;20178;-68
2022/09/21 08:16:44;;;;;;;4.60;4.20;;;13.90;99.90;;;;;;5028391;28;20194;-68
2022/09/21 08:19:10;;;;;;;5.03;3.50;;;14.20;99.90;;;;;;5029669;28;20519;-68
2022/09/21 08:21:35;;;;;;;5.47;3.60;;;14.30;99.90;;;;;;5031868;28;20511;-68
2022/09/21 08:24:01;;;;;;;5.00;3.03;;;14.20;99.90;;;;;;5032096;28;20220;-68
2022/09/21 08:26:27;;;;;;;4.90;3.70;;;14.40;99.90;;;;;;5018639;28;20203;-68
2022/09/21 08:28:55;;;;;;;3.27;2.97;;;14.80;99.90;;;;;;5011634;28;20497;-68
2022/09/21 08:31:22;;;;;;;4.93;3.13;;;15.10;99.90;;;;;;5011962;28;20171;-68
2022/09/21 08:33:49;;;;;;;4.20;2.80;;;14.90;99.90;;;;;;5011097;28;20432;-68
2022/09/21 08:36:14;;;;;;;5.13;3.07;;;14.80;99.90;;;;;;5008728;28;20568;-68
2022/09/21 08:38:40;;;;;;;4.23;3.80;;;14.90;99.90;;;;;;5010711;28;20935;-68
2022/09/21 08:41:13;;;;;;;6.17;3.90;;;15.70;99.90;;;;;;5027910;28;20483;-68
2022/09/21 08:43:42;;;;;;;7.93;3.80;;;16.00;99.90;;;;;;5032122;28;20777;-68
2022/09/21 08:46:21;;;;;;;6.43;4.20;;;16.30;99.90;;;;;;5027318;28;20872;-69
2022/09/21 08:48:53;;;;;;;5.20;4.60;;;17.40;99.90;;;;;;5031479;28;20927;-68
2022/09/21 08:51:25;;;;;;;8.60;4.67;;;18.60;99.90;;;;;;5025590;28;20426;-68
2022/09/21 08:53:54;;;;;;;9.47;4.33;;;19.30;99.90;;;;;;5012381;28;20504;-69
2022/09/21 08:56:22;;;;;;;5.63;4.97;;;19.50;99.90;;;;;;5008109;28;20516;-69
2022/09/21 08:58:47;;;;;;;5.10;4.70;;;20.00;99.90;;;;;;5010641;28;20433;-69
2022/09/21 09:01:49;;;;;;;5.80;5.27;;;20.10;99.90;;;;;;5012206;28;20425;-69
2022/09/21 09:04:23;;;;;;;6.07;3.80;;;21.20;97.00;;;;;;5013868;28;20197;-69
2022/09/21 09:07:01;;;;;;;3.70;3.40;;;22.00;94.30;;;;;;5008289;28;20453;-69
2022/09/21 09:09:54;;;;;;;3.13;2.60;;;23.00;91.80;;;;;;5010463;28;20425;-69
2022/09/21 09:12:38;;;;;;;1.83;1.60;;;23.40;85.70;;;;;;5011474;28;20508;-69
2022/09/21 09:15:26;;;;;;;3.10;1.33;;;23.10;82.30;;;;;;5024095;28;20436;-69
2022/09/21 09:17:55;;;;;;;1.57;1.43;;;21.80;82.30;;;;;;5028666;28;20439;-69
2022/09/21 09:20:29;;;;;;;1.60;1.50;;;21.90;84.90;;;;;;5026309;28;20444;-69
2022/09/21 09:23:21;;;;;;;1.57;1.43;;;23.00;81.50;;;;;;5026779;28;20424;-68
2022/09/21 09:25:50;;;;;;;1.23;1.13;;;23.90;75.60;;;;;;5020610;28;20441;-68
2022/09/21 09:28:37;;;;;;;1.80;1.70;;;24.20;73.00;;;;;;5010158;28;20437;-68
2022/09/21 09:31:13;;;;;;;2.87;1.93;;;22.60;75.50;;;;;;5011844;28;20410;-69
2022/09/21 09:33:59;;;;;;;2.63;1.20;;;23.70;74.00;;;;;;5010953;28;20425;-69
2022/09/21 09:36:34;;;;;;;1.90;1.50;;;25.20;67.70;;;;;;5008402;28;20449;-69
2022/09/21 09:39:04;;;;;;;1.60;1.47;;;25.00;66.20;;;;;;5013575;28;20934;-69
2022/09/21 09:41:57;;;;;;;1.77;1.67;;;25.50;63.60;;;;;;5026856;28;20468;-68
2022/09/21 09:44:48;;;;;;;2.10;1.30;;;26.00;61.70;;;;;;5020378;28;20429;-69
2022/09/21 09:47:43;;;;;;;3.53;1.90;;;26.60;58.50;;;;;;5023887;28;20988;-69
2022/09/21 09:50:19;;;;;;;1.73;1.40;;;27.00;57.10;;;;;;5029181;28;20425;-69
2022/09/21 09:52:46;;;;;;;2.60;1.53;;;25.80;57.10;;;;;;5031445;28;20499;-69
2022/09/21 09:55:20;;;;;;;2.40;2.20;;;25.20;57.40;;;;;;5027734;28;20538;-70
2022/09/21 09:57:48;;;;;;;2.00;1.73;;;25.40;59.00;;;;;;5030626;28;20464;-69
2022/09/21 10:00:17;;;;;;;1.63;1.47;;;26.40;57.40;;;;;;5030474;28;20957;-68
2022/09/21 10:03:00;;;;;;;3.87;1.63;;;25.80;54.80;;;;;;5030297;28;20424;-68
2022/09/21 10:05:34;;;;;;;7.37;2.30;;;25.20;57.00;;;;;;5028382;28;20456;-69
2022/09/21 10:08:00;;;;;;;2.33;1.93;;;25.80;56.70;;;;;;5029693;28;20914;-70
2022/09/21 10:10:31;;;;;;;1.77;1.63;;;26.70;53.80;;;;;;5030488;28;20428;-70
2022/09/21 10:13:30;;;;;;;1.90;1.67;;;25.50;55.20;;;;;;5025481;28;20433;-70
2022/09/21 10:16:16;;;;;;;2.50;2.00;;;26.50;54.90;;;;;;5008450;28;20496;-69
2022/09/21 10:18:44;;;;;;;2.40;2.20;;;25.60;53.20;;;;;;5014645;28;20413;-69
2022/09/21 10:21:32;;;;;;;2.90;2.37;;;25.20;56.40;;;;;;5017809;28;20934;-68
2022/09/21 10:24:01;;;;;;;2.23;2.03;;;25.80;54.90;;;;;;5030031;28;20424;-67
2022/09/21 10:26:36;;;;;;;5.13;2.73;;;26.40;54.90;;;;;;5017144;28;20452;-66
2022/09/21 10:29:20;;;;;;;3.93;2.60;;;24.70;56.50;;;;;;5020162;28;20835;-66
2022/09/21 10:32:03;;;;;;;2.43;2.23;;;25.00;57.80;;;;;;5026089;28;20440;-66
2022/09/21 10:34:34;;;;;;;3.50;2.30;;;26.60;56.10;;;;;;5024908;28;20433;-66
2022/09/21 10:37:02;;;;;;;4.03;2.70;;;27.10;53.80;;;;;;5022728;28;20580;-66
2022/09/21 10:39:32;;;;;;;3.37;3.03;;;25.30;54.40;;;;;;5014161;28;20429;-66
2022/09/21 10:42:11;;;;;;;2.37;2.17;;;24.50;55.90;;;;;;5025092;28;20809;-67
2022/09/21 10:44:40;;;;;;;3.00;2.20;;;23.00;57.80;;;;;;5031253;28;20428;-66
2022/09/21 10:47:16;;;;;;;4.40;2.80;;;24.40;57.80;;;;;;5021653;28;20519;-66
2022/09/21 10:49:49;;;;;;;2.30;2.10;;;27.50;54.30;;;;;;5013159;28;20579;-66
2022/09/21 10:52:17;;;;;;;3.07;2.77;;;29.20;51.90;;;;;;5014100;28;20441;-67
2022/09/21 10:54:46;;;;;;;4.00;2.67;;;30.20;48.70;;;;;;5014167;28;20488;-66
2022/09/21 10:57:17;;;;;;;3.33;2.30;;;31.30;47.50;;;;;;5010128;28;20469;-66
2022/09/21 10:59:43;;;;;;;2.40;2.20;;;32.30;44.40;;;;;;5015105;28;20426;-66
2022/09/21 11:02:30;;;;;;;3.20;2.30;;;32.50;44.20;;;;;;5014369;28;20937;-66
2022/09/21 11:05:08;;;;;;;2.50;2.30;;;32.00;42.50;;;;;;5011723;28;20590;-68
2022/09/21 11:07:44;;;;;;;1.77;1.67;;;32.80;41.20;;;;;;5013433;28;21061;-67
2022/09/21 11:10:34;;;;;;;1.60;1.50;;;32.30;41.20;;;;;;5019408;28;20481;-67
2022/09/21 11:13:27;;;;;;;1.47;1.37;;;33.30;39.40;;;;;;5013711;28;20596;-67
2022/09/21 11:16:11;;;;;;;2.03;1.50;;;33.80;38.60;;;;;;5009803;28;20481;-67
2022/09/21 11:18:39;;;;;;;1.97;1.60;;;33.60;37.70;;;;;;5013276;28;20425;-67
2022/09/21 11:21:16;;;;;;;2.33;1.57;;;33.50;37.40;;;;;;5013246;28;20529;-67
2022/09/21 11:24:10;;;;;;;1.53;1.33;;;32.60;38.10;;;;;;5030291;28;20524;-67
2022/09/21 11:26:45;;;;;;;2.07;1.40;;;32.10;38.30;;;;;;5030053;28;20945;-66
2022/09/21 11:29:19;;;;;;;4.47;1.40;;;31.00;38.00;;;;;;5030873;28;20432;-67
2022/09/21 11:31:57;;;;;;;3.63;3.33;;;31.50;37.60;;;;;;5033520;28;20797;-67
2022/09/21 11:34:44;;;;;;;3.23;1.50;;;31.70;37.90;;;;;;5033061;28;20420;-67
2022/09/21 11:37:18;;;;;;;1.53;1.30;;;33.30;36.40;;;;;;5029772;28;20471;-66
2022/09/21 11:39:58;;;;;;;2.03;1.40;;;33.20;35.80;;;;;;5032092;28;20490;-67
2022/09/21 11:42:42;;;;;;;1.27;1.17;;;33.60;35.90;;;;;;5032973;28;20420;-66
2022/09/21 11:45:37;;;;;;;1.27;1.17;;;34.50;34.50;;;;;;5030952;28;20432;-67
2022/09/21 11:48:19;;;;;;;2.43;2.07;;;35.70;33.70;;;;;;5028665;28;20432;-68
2022/09/21 11:50:48;;;;;;;3.60;2.57;;;35.40;34.10;;;;;;5032968;28;20424;-66
2022/09/21 11:53:14;;;;;;;2.03;1.93;;;35.10;35.40;;;;;;5032824;28;20420;-66
2022/09/21 11:56:18;;;;;;;2.00;1.90;;;35.60;34.00;;;;;;5029814;28;20977;-66
2022/09/21 11:59:08;;;;;;;2.47;1.90;;;33.10;35.30;;;;;;5024277;28;20471;-66
2022/09/21 12:01:44;;;;;;;1.50;1.40;;;31.80;36.10;;;;;;5013560;28;20430;-66
2022/09/21 12:04:28;;;;;;;1.53;1.43;;;32.40;35.60;;;;;;5013318;28;20433;-67
2022/09/21 12:07:31;;;;;;;2.03;1.53;;;31.90;36.40;;;;;;5009408;28;20429;-66
2022/09/21 12:10:04;;;;;;;1.93;1.53;;;29.90;37.10;;;;;;5012409;28;20452;-65
2022/09/21 12:12:55;;;;;;;1.87;1.37;;;27.00;40.00;;;;;;5011989;28;20930;-68
2022/09/21 12:15:31;;;;;;;1.60;1.50;;;25.00;43.40;;;;;;5009946;28;20478;-66
2022/09/21 12:18:15;;;;;;;2.40;1.80;;;24.80;43.80;;;;;;5011335;28;20520;-66
2022/09/21 12:20:57;;;;;;;2.00;1.70;;;25.50;43.70;;;;;;5012813;28;20425;-66
2022/09/21 12:23:34;;;;;;;1.77;1.67;;;26.50;42.20;;;;;;5016084;28;20471;-67
2022/09/21 12:26:02;;;;;;;2.23;1.27;;;27.80;41.70;;;;;;5029392;28;20498;-67
2022/09/21 12:28:36;;;;;;;1.40;1.30;;;30.50;39.30;;;;;;5030255;28;20802;-67
2022/09/21 12:31:10;;;;;;;3.03;1.60;;;32.30;36.40;;;;;;5032487;28;20425;-66
2022/09/21 12:33:41;;;;;;;3.57;1.20;;;31.30;35.60;;;;;;5032339;28;20477;-68
2022/09/21 12:36:13;;;;;;;1.43;1.33;;;29.60;36.80;;;;;;5028543;28;20531;-68
2022/09/21 12:39:02;;;;;;;9.67;1.63;;;27.60;38.50;;;;;;5030451;28;20782;-68
2022/09/21 12:41:46;;;;;;;2.10;1.53;;;25.40;40.70;;;;;;5031671;28;20483;-68
2022/09/21 12:44:32;;;;;;;1.33;1.17;;;24.00;43.00;;;;;;5032285;28;20425;-68
2022/09/21 12:47:10;;;;;;;1.10;1.00;;;23.10;44.00;;;;;;5022823;28;20479;-68
2022/09/21 12:49:42;;;;;;;2.80;1.23;;;22.00;45.10;;;;;;5027231;28;20440;-68
2022/09/21 12:52:09;;;;;;;1.10;1.00;;;23.30;45.30;;;;;;5032021;28;20433;-68
2022/09/21 12:54:37;;;;;;;1.50;1.40;;;26.10;41.50;;;;;;5025442;28;20996;-68
2022/09/21 12:57:32;;;;;;;1.57;1.10;;;26.80;39.40;;;;;;5025874;28;20456;-67
2022/09/21 13:00:04;;;;;;;1.40;1.20;;;25.00;40.90;;;;;;5017550;28;20858;-68
2022/09/21 13:02:40;;;;;;;2.77;1.20;;;23.70;42.80;;;;;;5031202;28;20441;-69
2022/09/21 13:05:32;;;;;;;1.33;1.23;;;22.70;44.50;;;;;;5029347;28;20443;-69
2022/09/21 13:08:16;;;;;;;3.10;1.20;;;22.00;45.40;;;;;;5010092;28;20583;-68
2022/09/21 13:10:54;;;;;;;2.33;1.27;;;21.30;47.10;;;;;;5011618;28;20425;-68
2022/09/21 13:13:32;;;;;;;1.83;1.47;;;20.60;48.10;;;;;;5011353;28;20836;-68
2022/09/21 13:15:58;;;;;;;1.93;1.60;;;20.10;50.00;;;;;;5025980;28;20441;-68
2022/09/21 13:18:33;;;;;;;2.50;1.50;;;19.70;50.70;;;;;;5030387;28;20923;-68